createdAt,value
2022-12-25T00:01:26.822Z,25.63
2022-12-25T00:03:53.706Z,26.15
2022-12-25T00:06:20.972Z,25.55
2022-12-25T00:08:47.762Z,24.13
2022-12-25T00:11:19.551Z,26.23
2022-12-25T00:13:47.217Z,27.48
2022-12-25T00:16:24.371Z,26.58
2022-12-25T00:18:52.087Z,28.58
2022-12-25T00:21:21.240Z,28.75
2022-12-25T00:23:48.611Z,26.08
2022-12-25T00:26:17.688Z,25.70
2022-12-25T00:28:44.896Z,26.13
2022-12-25T00:31:17.552Z,23.48
2022-12-25T00:33:47.501Z,23.85
2022-12-25T00:36:18.047Z,24.67
2022-12-25T00:38:46.056Z,24.70
2022-12-25T00:41:43.170Z,26.85
2022-12-25T00:44:13.622Z,25.13
2022-12-25T00:46:41.647Z,24.95
2022-12-25T00:49:08.431Z,23.92
2022-12-25T00:51:35.145Z,27.23
2022-12-25T00:54:01.927Z,24.13
2022-12-25T00:56:28.940Z,23.58
2022-12-25T00:58:56.131Z,23.27
2022-12-25T01:01:22.974Z,24.20
2022-12-25T01:03:49.675Z,24.20
2022-12-25T01:06:16.471Z,25.40
2022-12-25T01:09:03.694Z,23.73
2022-12-25T01:11:32.232Z,21.13
2022-12-25T01:13:59.322Z,23.88
2022-12-25T01:16:27.449Z,23.30
2022-12-25T01:18:54.553Z,23.92
2022-12-25T01:21:22.350Z,22.83
2022-12-25T01:23:52.407Z,23.63
2022-12-25T01:26:21.945Z,23.77
2022-12-25T01:28:50.179Z,24.17
2022-12-25T01:31:21.250Z,21.83
2022-12-25T01:33:48.102Z,21.85
2022-12-25T01:36:21.094Z,23.02
2022-12-25T01:38:48.863Z,22.75
2022-12-25T01:41:18.468Z,22.05
2022-12-25T01:44:15.658Z,22.58
2022-12-25T01:46:43.759Z,24.75
2022-12-25T01:49:21.577Z,22.63
2022-12-25T01:51:54.320Z,23.55
2022-12-25T01:54:28.660Z,23.45
2022-12-25T01:56:59.759Z,24.58
2022-12-25T01:59:28.747Z,23.00
2022-12-25T02:01:57.082Z,22.75
2022-12-25T02:04:45.774Z,24.70
2022-12-25T02:07:22.536Z,22.85
2022-12-25T02:09:50.417Z,20.75
2022-12-25T02:12:31.152Z,23.92
2022-12-25T02:15:06.085Z,20.58
2022-12-25T02:17:54.768Z,21.48
2022-12-25T02:20:24.469Z,21.55
2022-12-25T02:23:04.540Z,22.95
2022-12-25T02:26:31.507Z,23.42
2022-12-25T02:29:10.266Z,22.73
2022-12-25T02:31:51.350Z,23.23
2022-12-25T02:34:46.306Z,22.40
2022-12-25T02:37:22.573Z,22.90
2022-12-25T02:40:15.606Z,22.00
2022-12-25T02:43:16.587Z,22.70
2022-12-25T02:46:19.180Z,24.45
2022-12-25T02:49:11.101Z,24.97
2022-12-25T02:52:06.960Z,22.30
2022-12-25T02:55:04.730Z,22.58
2022-12-25T02:58:00.030Z,22.35
2022-12-25T03:00:45.154Z,24.30
2022-12-25T03:03:32.977Z,24.52
2022-12-25T03:06:22.573Z,23.42
2022-12-25T03:09:15.631Z,22.95
2022-12-25T03:11:44.967Z,21.23
2022-12-25T03:14:30.227Z,22.05
2022-12-25T03:16:59.125Z,21.65
2022-12-25T03:19:49.393Z,21.30
2022-12-25T03:22:46.779Z,20.85
2022-12-25T03:25:32.975Z,21.75
2022-12-25T03:28:00.600Z,22.42
2022-12-25T03:31:02.666Z,24.25
2022-12-25T03:34:34.455Z,20.67
2022-12-25T03:37:42.663Z,21.80
2022-12-25T03:41:01.384Z,20.25
2022-12-25T03:44:31.413Z,23.10
2022-12-25T03:47:39.731Z,20.73
2022-12-25T03:50:36.174Z,21.92
2022-12-25T03:53:36.634Z,25.10
2022-12-25T03:56:24.479Z,23.10
2022-12-25T03:59:23.106Z,22.08
2022-12-25T04:02:10.639Z,21.45
2022-12-25T04:04:57.046Z,23.05
2022-12-25T04:07:42.721Z,22.35
2022-12-25T04:10:28.967Z,20.80
2022-12-25T04:13:14.118Z,21.92
2022-12-25T04:15:59.310Z,20.48
2022-12-25T04:18:44.531Z,22.48
2022-12-25T04:21:29.750Z,23.00
2022-12-25T04:24:14.995Z,23.92
2022-12-25T04:27:00.030Z,22.08
2022-12-25T04:29:45.262Z,22.35
2022-12-25T04:32:30.316Z,24.05
2022-12-25T04:35:15.954Z,23.17
2022-12-25T04:37:42.621Z,21.35
2022-12-25T04:40:10.189Z,23.52
2022-12-25T04:42:36.862Z,22.20
2022-12-25T04:45:04.087Z,22.48
2022-12-25T04:47:30.915Z,23.00
2022-12-25T04:49:57.667Z,22.95
2022-12-25T04:52:24.389Z,23.80
2022-12-25T04:54:51.084Z,22.35
2022-12-25T04:57:17.724Z,20.30
2022-12-25T04:59:44.427Z,22.45
2022-12-25T05:02:12.078Z,21.55
2022-12-25T05:04:38.762Z,22.60
2022-12-25T05:07:05.385Z,21.52
2022-12-25T05:09:32.143Z,21.95
2022-12-25T05:11:58.811Z,21.15
2022-12-25T05:14:25.463Z,26.50
2022-12-25T05:16:52.223Z,21.83
2022-12-25T05:19:18.976Z,23.23
2022-12-25T05:21:45.748Z,21.67
2022-12-25T05:24:12.567Z,23.38
2022-12-25T05:26:39.217Z,19.73
2022-12-25T05:29:06.186Z,23.40
2022-12-25T05:31:33.201Z,22.92
2022-12-25T05:34:00.054Z,23.70
2022-12-25T05:36:27.275Z,21.02
2022-12-25T05:38:54.115Z,23.15
2022-12-25T05:41:20.831Z,21.73
2022-12-25T05:43:47.520Z,22.40
2022-12-25T05:46:14.770Z,19.80
2022-12-25T05:48:41.498Z,23.38
2022-12-25T05:51:11.888Z,21.77
2022-12-25T05:53:38.974Z,21.83
2022-12-25T05:56:07.971Z,22.05
2022-12-25T05:58:38.245Z,21.02
2022-12-25T06:01:11.944Z,25.27
2022-12-25T06:03:39.148Z,22.67
2022-12-25T06:06:07.336Z,22.25
2022-12-25T06:08:34.753Z,20.92
2022-12-25T06:11:06.919Z,22.50
2022-12-25T06:13:35.235Z,21.95
2022-12-25T06:16:11.625Z,20.88
2022-12-25T06:18:42.246Z,21.27
2022-12-25T06:21:11.337Z,20.65
2022-12-25T06:23:39.506Z,21.75
2022-12-25T06:26:13.727Z,20.95
2022-12-25T06:28:41.059Z,22.33
2022-12-25T06:31:09.183Z,20.98
2022-12-25T06:33:36.545Z,21.08
2022-12-25T06:36:15.969Z,19.67
2022-12-25T06:38:43.545Z,20.15
2022-12-25T06:41:14.767Z,20.00
2022-12-25T06:43:41.468Z,19.48
2022-12-25T06:46:11.883Z,20.65
2022-12-25T06:48:41.098Z,18.83
2022-12-25T06:51:08.113Z,21.80
2022-12-25T06:53:40.635Z,21.20
2022-12-25T06:56:15.728Z,20.67
2022-12-25T06:58:47.681Z,19.15
2022-12-25T07:01:28.792Z,20.33
2022-12-25T07:04:04.099Z,21.30
2022-12-25T07:06:31.014Z,20.90
2022-12-25T07:08:57.876Z,21.52
2022-12-25T07:11:25.142Z,20.50
2022-12-25T07:13:51.995Z,20.85
2022-12-25T07:16:19.156Z,17.65
2022-12-25T07:18:45.941Z,18.08
2022-12-25T07:21:16.491Z,19.20
2022-12-25T07:23:44.607Z,21.02
2022-12-25T07:26:13.652Z,21.10
2022-12-25T07:28:40.790Z,21.35
2022-12-25T07:31:12.457Z,20.48
2022-12-25T07:33:39.239Z,19.50
2022-12-25T07:36:07.569Z,20.58
2022-12-25T07:38:34.707Z,20.25
2022-12-25T07:41:01.816Z,18.60
2022-12-25T07:43:28.571Z,18.88
2022-12-25T07:46:00.611Z,18.67
2022-12-25T07:48:28.781Z,21.13
2022-12-25T07:51:00.525Z,20.95
2022-12-25T07:53:27.912Z,19.30
2022-12-25T07:56:03.788Z,22.10
2022-12-25T07:58:31.801Z,18.30
2022-12-25T08:01:35.595Z,22.15
2022-12-25T08:04:03.238Z,20.77
2022-12-25T08:06:34.327Z,23.63
2022-12-25T08:09:12.608Z,20.52
2022-12-25T08:11:45.064Z,21.60
2022-12-25T08:14:11.824Z,20.33
2022-12-25T08:16:42.283Z,20.70
2022-12-25T08:19:09.572Z,23.27
2022-12-25T08:21:37.363Z,20.40
2022-12-25T08:24:04.658Z,20.65
2022-12-25T08:26:31.322Z,22.75
2022-12-25T08:28:57.999Z,19.13
2022-12-25T08:31:28.778Z,21.05
2022-12-25T08:33:58.353Z,21.70
2022-12-25T08:36:25.754Z,22.35
2022-12-25T08:39:00.319Z,21.65
2022-12-25T08:41:29.672Z,22.05
2022-12-25T08:43:56.433Z,21.48
2022-12-25T08:46:23.787Z,20.38
2022-12-25T08:48:51.065Z,18.95
2022-12-25T08:51:21.166Z,21.58
2022-12-25T08:53:49.846Z,23.08
2022-12-25T08:56:18.121Z,20.25
2022-12-25T08:58:45.510Z,20.63
2022-12-25T09:01:13.740Z,21.45
2022-12-25T09:03:41.363Z,28.55
2022-12-25T09:06:12.693Z,27.95
2022-12-25T09:08:47.730Z,23.40
2022-12-25T09:11:16.627Z,26.70
2022-12-25T09:13:43.459Z,26.08
2022-12-25T09:16:14.255Z,25.85
2022-12-25T09:18:41.319Z,24.38
2022-12-25T09:21:12.443Z,24.40
2022-12-25T09:23:39.254Z,27.10
2022-12-25T09:26:10.623Z,25.30
2022-12-25T09:28:37.374Z,24.02
2022-12-25T09:31:05.200Z,24.50
2022-12-25T09:33:32.234Z,26.90
2022-12-25T09:36:08.223Z,26.38
2022-12-25T09:38:35.761Z,25.17
2022-12-25T09:41:36.323Z,27.23
2022-12-25T09:44:15.447Z,24.63
2022-12-25T09:46:48.722Z,24.50
2022-12-25T09:49:42.723Z,27.95
2022-12-25T09:52:25.335Z,28.75
2022-12-25T09:55:08.179Z,25.77
2022-12-25T09:57:34.917Z,25.30
2022-12-25T10:00:01.685Z,26.98
2022-12-25T10:02:52.562Z,24.45
2022-12-25T10:05:55.918Z,21.83
2022-12-25T10:11:55.745Z,23.60
2022-12-25T10:15:10.698Z,21.25
2022-12-25T10:18:38.304Z,21.83
2022-12-25T10:21:13.188Z,22.00
2022-12-25T10:24:08.317Z,23.17
2022-12-25T10:26:35.520Z,19.95
2022-12-25T10:29:13.712Z,22.00
2022-12-25T10:31:43.860Z,16.75
2022-12-25T10:34:13.853Z,19.98
2022-12-25T10:36:42.552Z,18.33
2022-12-25T10:39:21.465Z,17.67
2022-12-25T10:42:22.204Z,19.63
2022-12-25T10:45:09.055Z,16.05
2022-12-25T10:47:42.589Z,18.40
2022-12-25T10:50:21.535Z,16.85
2022-12-25T10:53:04.678Z,17.55
2022-12-25T10:55:32.847Z,17.20
2022-12-25T10:58:01.810Z,18.98
2022-12-25T11:00:31.750Z,16.83
2022-12-25T11:02:59.393Z,17.35
2022-12-25T11:05:35.684Z,17.90
2022-12-25T11:08:03.846Z,16.27
2022-12-25T11:10:59.137Z,18.20
2022-12-25T11:13:30.843Z,16.88
2022-12-25T11:16:10.693Z,15.18
2022-12-25T11:18:53.042Z,19.20
2022-12-25T11:21:30.299Z,15.70
2022-12-25T11:24:18.573Z,19.00
2022-12-25T11:27:00.986Z,18.30
2022-12-25T11:29:40.761Z,19.83
2022-12-25T11:32:31.967Z,20.48
2022-12-25T11:35:01.460Z,18.17
2022-12-25T11:37:43.553Z,17.08
2022-12-25T11:40:16.384Z,18.25
2022-12-25T11:42:53.301Z,17.50
2022-12-25T11:45:28.529Z,16.88
2022-12-25T11:48:02.630Z,16.38
2022-12-25T11:50:36.242Z,17.48
2022-12-25T11:53:07.528Z,17.30
2022-12-25T11:55:44.473Z,17.90
2022-12-25T11:58:26.298Z,16.50
2022-12-25T12:00:56.463Z,16.15
2022-12-25T12:03:26.996Z,16.63
2022-12-25T12:06:14.046Z,16.98
2022-12-25T12:08:41.550Z,27.95
2022-12-25T12:11:17.442Z,16.98
2022-12-25T12:14:30.753Z,17.45
2022-12-25T12:16:57.570Z,15.95
2022-12-25T12:19:34.698Z,19.17
2022-12-25T12:22:04.449Z,19.17
2022-12-25T12:25:01.317Z,23.90
2022-12-25T12:27:38.790Z,20.17
2022-12-25T12:30:17.426Z,19.42
2022-12-25T12:32:47.708Z,19.30
2022-12-25T12:35:23.208Z,19.10
2022-12-25T12:37:56.420Z,18.25
2022-12-25T12:40:37.662Z,18.73
2022-12-25T12:43:07.241Z,16.08
2022-12-25T12:45:37.772Z,18.50
2022-12-25T12:48:16.318Z,18.60
2022-12-25T12:50:43.660Z,17.88
2022-12-25T12:53:24.536Z,17.45
2022-12-25T12:55:52.637Z,17.77
2022-12-25T12:58:30.860Z,21.75
2022-12-25T13:01:00.609Z,18.75
2022-12-25T13:04:19.277Z,17.88
2022-12-25T13:07:44.178Z,17.50
2022-12-25T13:10:38.200Z,18.00
2022-12-25T13:13:36.384Z,17.20
2022-12-25T13:16:03.999Z,18.75
2022-12-25T13:18:31.941Z,18.00
2022-12-25T13:21:02.370Z,19.23
2022-12-25T13:23:32.423Z,17.88
2022-12-25T13:26:03.480Z,16.90
2022-12-25T13:28:36.426Z,18.50
2022-12-25T13:31:18.753Z,19.88
2022-12-25T13:33:50.572Z,18.42
2022-12-25T13:36:17.730Z,18.40
2022-12-25T13:38:51.909Z,19.50
2022-12-25T13:41:41.067Z,19.75
2022-12-25T13:44:31.012Z,18.25
2022-12-25T13:47:21.014Z,16.50
2022-12-25T13:49:49.635Z,22.13
2022-12-25T13:52:28.331Z,16.88
2022-12-25T13:55:18.733Z,17.75
2022-12-25T13:58:01.184Z,18.02
2022-12-25T14:00:53.035Z,18.73
2022-12-25T14:03:27.026Z,18.35
2022-12-25T14:06:07.349Z,22.02
2022-12-25T14:08:35.819Z,30.92
2022-12-25T14:11:05.953Z,21.33
2022-12-25T14:13:38.747Z,21.73
2022-12-25T14:16:06.826Z,20.95
2022-12-25T14:18:33.820Z,21.90
2022-12-25T14:21:10.925Z,23.13
2022-12-25T14:23:50.178Z,22.77
2022-12-25T14:26:23.427Z,22.20
2022-12-25T14:28:54.499Z,21.67
2022-12-25T14:31:23.588Z,23.38
2022-12-25T14:33:52.619Z,23.40
2022-12-25T14:36:20.517Z,20.15
2022-12-25T14:39:00.660Z,22.02
2022-12-25T14:41:41.758Z,19.52
2022-12-25T14:44:40.909Z,21.65
2022-12-25T14:47:10.643Z,20.60
2022-12-25T14:49:38.154Z,20.20
2022-12-25T14:52:42.527Z,22.42
2022-12-25T14:55:21.289Z,21.13
2022-12-25T14:58:08.270Z,20.73
2022-12-25T15:00:38.662Z,28.67
2022-12-25T15:03:09.137Z,21.15
2022-12-25T15:05:39.198Z,19.88
2022-12-25T15:08:08.813Z,20.75
2022-12-25T15:13:23.535Z,20.08
2022-12-25T15:15:58.764Z,19.42
2022-12-25T15:18:32.199Z,19.88
2022-12-25T15:20:59.116Z,21.92
2022-12-25T15:23:25.842Z,21.85
2022-12-25T15:25:52.684Z,21.52
2022-12-25T15:28:19.868Z,20.83
2022-12-25T15:30:47.608Z,20.58
2022-12-25T15:33:16.772Z,20.55
2022-12-25T15:35:44.881Z,23.35
2022-12-25T15:38:13.145Z,21.98
2022-12-25T15:40:41.084Z,21.67
2022-12-25T15:43:20.891Z,21.10
2022-12-25T15:45:55.694Z,18.65
2022-12-25T15:48:22.367Z,21.25
2022-12-25T15:50:49.360Z,21.35
2022-12-25T15:53:16.003Z,21.10
2022-12-25T15:55:42.665Z,21.08
2022-12-25T15:58:15.021Z,22.08
2022-12-25T16:00:41.681Z,21.20
2022-12-25T16:03:08.448Z,23.45
2022-12-25T16:05:35.509Z,21.60
2022-12-25T16:08:02.503Z,22.00
2022-12-25T16:10:34.873Z,21.65
2022-12-25T16:13:05.002Z,20.92
2022-12-25T16:15:31.782Z,22.42
2022-12-25T16:17:58.679Z,20.60
2022-12-25T16:20:25.401Z,22.25
2022-12-25T16:22:52.061Z,19.58
2022-12-25T16:25:19.551Z,22.58
2022-12-25T16:27:47.051Z,23.83
2022-12-25T16:30:16.861Z,19.23
2022-12-25T16:32:45.371Z,19.42
2022-12-25T16:35:12.337Z,17.20
2022-12-25T16:37:39.105Z,18.70
2022-12-25T16:40:09.520Z,19.02
2022-12-25T16:42:37.366Z,22.15
2022-12-25T16:45:07.519Z,19.02
2022-12-25T16:47:34.579Z,18.55
2022-12-25T16:50:01.214Z,18.15
2022-12-25T16:52:28.088Z,22.02
2022-12-25T16:54:54.797Z,17.05
2022-12-25T16:57:21.518Z,17.48
2022-12-25T16:59:48.224Z,19.15
2022-12-25T17:02:20.824Z,19.20
2022-12-25T17:04:48.464Z,20.30
2022-12-25T17:07:17.058Z,18.17
2022-12-25T17:09:48.074Z,18.08
2022-12-25T17:12:15.360Z,17.45
2022-12-25T17:14:42.468Z,19.20
2022-12-25T17:17:09.299Z,16.92
2022-12-25T17:19:36.087Z,19.38
2022-12-25T17:22:02.907Z,19.95
2022-12-25T17:24:29.869Z,18.85
2022-12-25T17:26:56.612Z,17.30
2022-12-25T17:29:24.999Z,18.05
2022-12-25T17:31:52.162Z,18.00
2022-12-25T17:34:19.304Z,18.63
2022-12-25T17:36:45.954Z,16.67
2022-12-25T17:39:12.640Z,17.77
2022-12-25T17:41:39.360Z,18.10
2022-12-25T17:44:06.077Z,18.85
2022-12-25T17:46:33.193Z,17.95
2022-12-25T17:49:01.354Z,16.17
2022-12-25T17:51:31.012Z,18.83
2022-12-25T17:54:03.146Z,18.80
2022-12-25T17:56:30.828Z,19.00
2022-12-25T17:59:03.433Z,17.35
2022-12-25T18:01:30.327Z,19.77
2022-12-25T18:03:59.791Z,17.65
2022-12-25T18:06:28.329Z,18.67
2022-12-25T18:08:57.674Z,27.98
2022-12-25T18:11:29.268Z,17.58
2022-12-25T18:13:58.562Z,17.35
2022-12-25T18:16:27.217Z,16.75
2022-12-25T18:18:54.285Z,17.73
2022-12-25T18:21:22.975Z,16.42
2022-12-25T18:23:50.435Z,18.05
2022-12-25T18:26:18.623Z,17.83
2022-12-25T18:28:46.279Z,17.73
2022-12-25T18:31:20.608Z,17.42
2022-12-25T18:33:47.667Z,17.80
2022-12-25T18:36:17.388Z,16.63
2022-12-25T18:38:44.660Z,17.80
2022-12-25T18:41:12.307Z,16.17
2022-12-25T18:43:52.569Z,17.80
2022-12-25T18:46:26.589Z,19.02
2022-12-25T18:48:56.596Z,18.42
2022-12-25T18:51:23.623Z,17.02
2022-12-25T18:53:50.997Z,17.13
2022-12-25T18:56:20.016Z,16.85
2022-12-25T18:58:47.806Z,16.83
2022-12-25T19:01:21.908Z,16.65
2022-12-25T19:06:27.671Z,16.40
2022-12-25T19:08:56.253Z,19.27
2022-12-25T19:11:23.319Z,17.95
2022-12-25T19:13:50.127Z,16.77
2022-12-25T19:16:17.030Z,18.02
2022-12-25T19:18:45.296Z,18.98
2022-12-25T19:21:12.263Z,16.67
2022-12-25T19:23:39.480Z,16.85
2022-12-25T19:26:08.502Z,18.83
2022-12-25T19:28:36.599Z,18.42
2022-12-25T19:31:07.239Z,17.65
2022-12-25T19:33:36.711Z,16.88
2022-12-25T19:36:10.775Z,15.90
2022-12-25T19:38:37.883Z,18.23
2022-12-25T19:41:16.964Z,17.80
2022-12-25T19:43:47.631Z,16.40
2022-12-25T19:46:26.247Z,19.33
2022-12-25T19:48:54.560Z,16.48
2022-12-25T19:51:28.842Z,17.92
2022-12-25T19:53:56.606Z,17.50
2022-12-25T19:56:27.993Z,16.73
2022-12-25T19:58:55.837Z,16.13
2022-12-25T20:01:25.661Z,17.92
2022-12-25T20:03:53.186Z,16.80
2022-12-25T20:06:27.982Z,15.55
2022-12-25T20:09:00.313Z,16.23
2022-12-25T20:11:29.168Z,15.10
2022-12-25T20:13:56.550Z,15.88
2022-12-25T20:16:24.935Z,16.63
2022-12-25T20:18:52.490Z,16.63
2022-12-25T20:21:22.153Z,17.05
2022-12-25T20:23:51.943Z,17.35
2022-12-25T20:26:22.324Z,16.92
2022-12-25T20:28:49.282Z,17.95
2022-12-25T20:31:27.427Z,16.50
2022-12-25T20:33:56.439Z,16.67
2022-12-25T20:36:23.393Z,16.88
2022-12-25T20:38:50.235Z,16.08
2022-12-25T20:41:29.358Z,15.15
2022-12-25T20:43:56.829Z,20.42
2022-12-25T20:46:25.417Z,16.90
2022-12-25T20:48:52.869Z,17.60
2022-12-25T20:51:24.428Z,15.80
2022-12-25T20:53:52.135Z,17.95
2022-12-25T20:56:22.101Z,17.40
2022-12-25T20:58:57.051Z,18.27
2022-12-25T21:01:24.884Z,18.88
2022-12-25T21:03:52.312Z,19.08
2022-12-25T21:06:20.510Z,17.80
2022-12-25T21:08:47.941Z,16.70
2022-12-25T21:11:15.639Z,18.95
2022-12-25T21:13:45.339Z,18.77
2022-12-25T21:16:20.328Z,19.15
2022-12-25T21:18:50.880Z,16.48
2022-12-25T21:21:18.103Z,16.63
2022-12-25T21:23:45.613Z,22.48
2022-12-25T21:26:21.656Z,19.00
2022-12-25T21:28:50.698Z,18.13
2022-12-25T21:31:19.220Z,16.38
2022-12-25T21:33:52.608Z,17.95
2022-12-25T21:36:31.423Z,20.73
2022-12-25T21:39:00.527Z,17.13
2022-12-25T21:41:29.687Z,17.13
2022-12-25T21:43:57.388Z,18.63
2022-12-25T21:46:24.924Z,21.75
2022-12-25T21:48:52.796Z,17.88
2022-12-25T21:51:48.152Z,17.73
2022-12-25T21:54:15.805Z,20.98
2022-12-25T21:56:45.633Z,16.75
2022-12-25T21:59:21.767Z,16.52
2022-12-25T22:01:50.869Z,15.27
2022-12-25T22:04:20.930Z,21.00
2022-12-25T22:07:07.014Z,17.02
2022-12-25T22:09:34.246Z,17.65
2022-12-25T22:12:20.487Z,17.08
2022-12-25T22:14:54.213Z,16.55
2022-12-25T22:17:53.838Z,16.33
2022-12-25T22:20:27.580Z,15.13
2022-12-25T22:22:54.782Z,17.42
2022-12-25T22:25:23.553Z,17.73
2022-12-25T22:27:51.472Z,17.70
2022-12-25T22:30:22.906Z,15.88
2022-12-25T22:32:50.438Z,17.10
2022-12-25T22:35:18.596Z,16.40
2022-12-25T22:37:45.696Z,15.15
2022-12-25T22:40:16.336Z,17.85
2022-12-25T22:42:43.091Z,15.27
2022-12-25T22:45:10.982Z,16.50
2022-12-25T22:47:38.060Z,16.38
2022-12-25T22:50:05.384Z,17.65
2022-12-25T22:52:32.076Z,16.38
2022-12-25T22:54:58.868Z,18.05
2022-12-25T22:57:25.716Z,15.88
2022-12-25T22:59:53.221Z,18.20
2022-12-25T23:02:20.413Z,16.45
2022-12-25T23:04:47.575Z,18.08
2022-12-25T23:07:15.106Z,18.88
2022-12-25T23:09:43.871Z,17.65
2022-12-25T23:12:33.869Z,18.30
2022-12-25T23:15:01.099Z,16.42
2022-12-25T23:17:46.336Z,16.08
2022-12-25T23:20:33.570Z,17.95
2022-12-25T23:23:20.467Z,19.80
2022-12-25T23:26:06.939Z,17.58
2022-12-25T23:28:56.870Z,17.67
2022-12-25T23:31:29.740Z,16.25
2022-12-25T23:33:57.333Z,20.05
2022-12-25T23:36:24.269Z,15.77
2022-12-25T23:38:50.999Z,20.15
2022-12-25T23:41:17.734Z,16.98
2022-12-25T23:43:44.495Z,18.52
2022-12-25T23:46:11.284Z,18.17
2022-12-25T23:48:38.046Z,19.45
2022-12-25T23:51:06.571Z,16.75
2022-12-25T23:53:34.229Z,17.55
2022-12-25T23:56:01.617Z,15.23
2022-12-25T23:58:30.121Z,16.67
